sensor_id;sensor_type;location;lat;lon;timestamp;temperature;humidity
45685;DHT22;46836;48.388;16.210;2022-08-01T00:00:35;20.60;99.90
45685;DHT22;46836;48.388;16.210;2022-08-01T00:03:03;20.60;99.90
45685;DHT22;46836;48.388;16.210;2022-08-01T00:05:30;20.60;99.90
45685;DHT22;46836;48.388;16.210;2022-08-01T00:07:57;20.60;99.90
45685;DHT22;46836;48.388;16.210;2022-08-01T00:10:24;20.60;99.90
45685;DHT22;46836;48.388;16.210;2022-08-01T00:12:51;20.60;99.90
45685;DHT22;46836;48.388;16.210;2022-08-01T00:15:19;20.60;99.90
45685;DHT22;46836;48.388;16.210;2022-08-01T00:17:46;20.50;99.90
45685;DHT22;46836;48.388;16.210;2022-08-01T00:20:14;20.60;99.90
45685;DHT22;46836;48.388;16.210;2022-08-01T00:22:41;20.60;99.90
45685;DHT22;46836;48.388;16.210;2022-08-01T00:25:08;20.60;99.90
45685;DHT22;46836;48.388;16.210;2022-08-01T00:27:35;20.60;99.90
45685;DHT22;46836;48.388;16.210;2022-08-01T00:30:04;20.60;99.90
45685;DHT22;46836;48.388;16.210;2022-08-01T00:32:41;20.60;99.90
45685;DHT22;46836;48.388;16.210;2022-08-01T00:35:09;20.60;99.90
45685;DHT22;46836;48.388;16.210;2022-08-01T00:37:37;20.60;99.90
45685;DHT22;46836;48.388;16.210;2022-08-01T00:40:04;20.60;99.90
45685;DHT22;46836;48.388;16.210;2022-08-01T00:42:31;20.60;99.90
45685;DHT22;46836;48.388;16.210;2022-08-01T00:44:59;20.60;99.90
45685;DHT22;46836;48.388;16.210;2022-08-01T00:47:26;20.60;99.90
45685;DHT22;46836;48.388;16.210;2022-08-01T00:49:53;20.60;99.90
45685;DHT22;46836;48.388;16.210;2022-08-01T00:52:20;20.60;99.90
45685;DHT22;46836;48.388;16.210;2022-08-01T00:54:48;20.60;99.90
45685;DHT22;46836;48.388;16.210;2022-08-01T00:57:15;20.60;99.90
45685;DHT22;46836;48.388;16.210;2022-08-01T01:00:04;20.50;99.90
45685;DHT22;46836;48.388;16.210;2022-08-01T01:02:32;20.50;99.90
45685;DHT22;46836;48.388;16.210;2022-08-01T01:04:59;20.50;99.90
45685;DHT22;46836;48.388;16.210;2022-08-01T01:07:34;20.50;99.90
45685;DHT22;46836;48.388;16.210;2022-08-01T01:10:25;20.50;99.90
45685;DHT22;46836;48.388;16.210;2022-08-01T01:15:58;20.50;99.90
45685;DHT22;46836;48.388;16.210;2022-08-01T01:21:24;20.50;99.90
45685;DHT22;46836;48.388;16.210;2022-08-01T01:24:21;20.50;99.90
45685;DHT22;46836;48.388;16.210;2022-08-01T01:27:10;20.50;99.90
45685;DHT22;46836;48.388;16.210;2022-08-01T01:29:50;20.50;99.90
45685;DHT22;46836;48.388;16.210;2022-08-01T01:32:35;20.50;99.90
45685;DHT22;46836;48.388;16.210;2022-08-01T01:35:06;20.50;99.90
45685;DHT22;46836;48.388;16.210;2022-08-01T01:37:37;20.50;99.90
45685;DHT22;46836;48.388;16.210;2022-08-01T01:40:07;20.50;99.90
45685;DHT22;46836;48.388;16.210;2022-08-01T01:42:37;20.50;99.90
45685;DHT22;46836;48.388;16.210;2022-08-01T01:45:06;20.50;99.90
45685;DHT22;46836;48.388;16.210;2022-08-01T01:47:34;20.50;99.90
45685;DHT22;46836;48.388;16.210;2022-08-01T01:50:03;20.50;99.90
45685;DHT22;46836;48.388;16.210;2022-08-01T01:52:32;20.50;99.90
45685;DHT22;46836;48.388;16.210;2022-08-01T01:55:00;20.50;99.90
45685;DHT22;46836;48.388;16.210;2022-08-01T01:57:29;20.50;99.90
45685;DHT22;46836;48.388;16.210;2022-08-01T01:59:58;20.50;99.90
45685;DHT22;46836;48.388;16.210;2022-08-01T02:02:27;20.50;99.90
45685;DHT22;46836;48.388;16.210;2022-08-01T02:04:55;20.40;99.90
45685;DHT22;46836;48.388;16.210;2022-08-01T02:07:25;20.40;99.90
45685;DHT22;46836;48.388;16.210;2022-08-01T02:09:54;20.40;99.90
45685;DHT22;46836;48.388;16.210;2022-08-01T02:12:23;20.40;99.90
45685;DHT22;46836;48.388;16.210;2022-08-01T02:14:53;20.40;99.90
45685;DHT22;46836;48.388;16.210;2022-08-01T02:17:23;20.40;99.90
45685;DHT22;46836;48.388;16.210;2022-08-01T02:19:51;20.40;99.90
45685;DHT22;46836;48.388;16.210;2022-08-01T02:22:19;20.30;99.90
45685;DHT22;46836;48.388;16.210;2022-08-01T02:25:05;20.30;99.90
45685;DHT22;46836;48.388;16.210;2022-08-01T02:27:40;20.40;99.90
45685;DHT22;46836;48.388;16.210;2022-08-01T02:30:12;20.30;99.90
45685;DHT22;46836;48.388;16.210;2022-08-01T02:32:50;20.30;99.90
45685;DHT22;46836;48.388;16.210;2022-08-01T02:35:24;20.40;99.90
45685;DHT22;46836;48.388;16.210;2022-08-01T02:37:55;20.30;99.90
45685;DHT22;46836;48.388;16.210;2022-08-01T02:40:25;20.30;99.90
45685;DHT22;46836;48.388;16.210;2022-08-01T02:42:56;20.30;99.90
45685;DHT22;46836;48.388;16.210;2022-08-01T02:45:26;20.30;99.90
45685;DHT22;46836;48.388;16.210;2022-08-01T02:47:59;20.30;99.90
45685;DHT22;46836;48.388;16.210;2022-08-01T02:50:30;20.30;99.90
45685;DHT22;46836;48.388;16.210;2022-08-01T02:52:59;20.30;99.90
45685;DHT22;46836;48.388;16.210;2022-08-01T02:55:29;20.30;99.90
45685;DHT22;46836;48.388;16.210;2022-08-01T02:57:59;20.30;99.90
45685;DHT22;46836;48.388;16.210;2022-08-01T03:00:30;20.30;99.90
45685;DHT22;46836;48.388;16.210;2022-08-01T03:02:59;20.30;99.90
45685;DHT22;46836;48.388;16.210;2022-08-01T03:05:28;20.30;99.90
45685;DHT22;46836;48.388;16.210;2022-08-01T03:07:57;20.30;99.90
45685;DHT22;46836;48.388;16.210;2022-08-01T03:10:31;20.30;99.90
45685;DHT22;46836;48.388;16.210;2022-08-01T03:13:00;20.30;99.90
45685;DHT22;46836;48.388;16.210;2022-08-01T03:15:30;20.30;99.90
45685;DHT22;46836;48.388;16.210;2022-08-01T03:17:59;20.30;99.90
45685;DHT22;46836;48.388;16.210;2022-08-01T03:20:28;20.30;99.90
45685;DHT22;46836;48.388;16.210;2022-08-01T03:22:57;20.20;99.90
45685;DHT22;46836;48.388;16.210;2022-08-01T03:25:27;20.30;99.90
45685;DHT22;46836;48.388;16.210;2022-08-01T03:27:59;20.30;99.90
45685;DHT22;46836;48.388;16.210;2022-08-01T03:30:28;20.30;99.90
45685;DHT22;46836;48.388;16.210;2022-08-01T03:32:57;20.20;99.90
45685;DHT22;46836;48.388;16.210;2022-08-01T03:35:33;20.30;99.90
45685;DHT22;46836;48.388;16.210;2022-08-01T03:38:05;20.30;99.90
45685;DHT22;46836;48.388;16.210;2022-08-01T03:40:59;20.30;99.90
45685;DHT22;46836;48.388;16.210;2022-08-01T03:43:34;20.30;99.90
45685;DHT22;46836;48.388;16.210;2022-08-01T03:46:08;20.40;99.90
45685;DHT22;46836;48.388;16.210;2022-08-01T03:48:43;20.40;99.90
45685;DHT22;46836;48.388;16.210;2022-08-01T03:51:14;20.40;99.90
45685;DHT22;46836;48.388;16.210;2022-08-01T03:53:42;20.40;99.90
45685;DHT22;46836;48.388;16.210;2022-08-01T03:56:13;20.40;99.90
45685;DHT22;46836;48.388;16.210;2022-08-01T03:58:43;20.40;99.90
45685;DHT22;46836;48.388;16.210;2022-08-01T04:01:16;20.40;99.90
45685;DHT22;46836;48.388;16.210;2022-08-01T04:03:44;20.40;99.90
45685;DHT22;46836;48.388;16.210;2022-08-01T04:06:11;20.40;99.90
45685;DHT22;46836;48.388;16.210;2022-08-01T04:08:41;20.40;99.90
45685;DHT22;46836;48.388;16.210;2022-08-01T04:11:09;20.50;99.90
45685;DHT22;46836;48.388;16.210;2022-08-01T04:13:36;20.50;99.90
45685;DHT22;46836;48.388;16.210;2022-08-01T04:16:04;20.50;99.90
45685;DHT22;46836;48.388;16.210;2022-08-01T04:18:32;20.50;99.90
45685;DHT22;46836;48.388;16.210;2022-08-01T04:20:59;20.50;99.90
45685;DHT22;46836;48.388;16.210;2022-08-01T04:23:27;20.60;99.90
45685;DHT22;46836;48.388;16.210;2022-08-01T04:25:59;20.60;99.90
45685;DHT22;46836;48.388;16.210;2022-08-01T04:28:30;20.60;99.90
45685;DHT22;46836;48.388;16.210;2022-08-01T04:30:58;20.60;99.90
45685;DHT22;46836;48.388;16.210;2022-08-01T04:33:29;20.70;99.90
45685;DHT22;46836;48.388;16.210;2022-08-01T04:35:59;20.70;99.90
45685;DHT22;46836;48.388;16.210;2022-08-01T04:38:32;20.80;99.90
45685;DHT22;46836;48.388;16.210;2022-08-01T04:41:00;20.80;99.90
45685;DHT22;46836;48.388;16.210;2022-08-01T04:43:38;20.90;99.90
45685;DHT22;46836;48.388;16.210;2022-08-01T04:46:08;20.90;99.90
45685;DHT22;46836;48.388;16.210;2022-08-01T04:48:38;20.90;99.90
45685;DHT22;46836;48.388;16.210;2022-08-01T04:51:14;21.00;99.90
45685;DHT22;46836;48.388;16.210;2022-08-01T04:53:45;21.00;99.90
45685;DHT22;46836;48.388;16.210;2022-08-01T04:56:13;21.00;99.90
45685;DHT22;46836;48.388;16.210;2022-08-01T04:58:43;21.00;99.90
45685;DHT22;46836;48.388;16.210;2022-08-01T05:01:11;21.00;99.90
45685;DHT22;46836;48.388;16.210;2022-08-01T05:03:38;21.00;99.90
45685;DHT22;46836;48.388;16.210;2022-08-01T05:06:06;21.00;99.90
45685;DHT22;46836;48.388;16.210;2022-08-01T05:08:33;21.10;99.90
45685;DHT22;46836;48.388;16.210;2022-08-01T05:11:00;21.10;99.90
45685;DHT22;46836;48.388;16.210;2022-08-01T05:13:28;21.10;99.90
45685;DHT22;46836;48.388;16.210;2022-08-01T05:15:55;21.20;99.90
45685;DHT22;46836;48.388;16.210;2022-08-01T05:18:22;21.20;99.90
45685;DHT22;46836;48.388;16.210;2022-08-01T05:20:54;21.30;99.90
45685;DHT22;46836;48.388;16.210;2022-08-01T05:23:21;21.40;99.90
45685;DHT22;46836;48.388;16.210;2022-08-01T05:26:10;21.50;99.90
45685;DHT22;46836;48.388;16.210;2022-08-01T05:28:40;21.70;99.90
45685;DHT22;46836;48.388;16.210;2022-08-01T05:31:07;21.80;99.90
45685;DHT22;46836;48.388;16.210;2022-08-01T05:33:34;21.90;99.90
45685;DHT22;46836;48.388;16.210;2022-08-01T05:36:02;22.00;99.90
45685;DHT22;46836;48.388;16.210;2022-08-01T05:38:29;22.10;99.90
45685;DHT22;46836;48.388;16.210;2022-08-01T05:40:56;22.10;99.90
45685;DHT22;46836;48.388;16.210;2022-08-01T05:43:23;22.20;99.90
45685;DHT22;46836;48.388;16.210;2022-08-01T05:45:55;22.30;99.90
45685;DHT22;46836;48.388;16.210;2022-08-01T05:48:22;22.40;99.90
45685;DHT22;46836;48.388;16.210;2022-08-01T05:50:49;22.40;99.90
45685;DHT22;46836;48.388;16.210;2022-08-01T05:53:22;22.50;99.90
45685;DHT22;46836;48.388;16.210;2022-08-01T05:55:49;22.50;99.90
45685;DHT22;46836;48.388;16.210;2022-08-01T05:58:16;22.60;99.90
45685;DHT22;46836;48.388;16.210;2022-08-01T06:00:43;22.60;99.90
45685;DHT22;46836;48.388;16.210;2022-08-01T06:03:10;22.60;99.90
45685;DHT22;46836;48.388;16.210;2022-08-01T06:05:38;22.70;99.90
45685;DHT22;46836;48.388;16.210;2022-08-01T06:08:05;22.80;99.90
45685;DHT22;46836;48.388;16.210;2022-08-01T06:10:32;22.90;99.90
45685;DHT22;46836;48.388;16.210;2022-08-01T06:12:59;22.90;99.90
45685;DHT22;46836;48.388;16.210;2022-08-01T06:15:31;23.00;99.90
45685;DHT22;46836;48.388;16.210;2022-08-01T06:17:58;23.00;99.90
45685;DHT22;46836;48.388;16.210;2022-08-01T06:20:25;23.10;99.90
45685;DHT22;46836;48.388;16.210;2022-08-01T06:22:53;23.10;99.90
45685;DHT22;46836;48.388;16.210;2022-08-01T06:25:22;23.10;99.90
45685;DHT22;46836;48.388;16.210;2022-08-01T06:27:49;23.20;99.90
45685;DHT22;46836;48.388;16.210;2022-08-01T06:30:16;23.20;99.90
45685;DHT22;46836;48.388;16.210;2022-08-01T06:32:43;23.30;99.90
45685;DHT22;46836;48.388;16.210;2022-08-01T06:35:10;23.40;99.90
45685;DHT22;46836;48.388;16.210;2022-08-01T06:37:37;23.50;99.90
45685;DHT22;46836;48.388;16.210;2022-08-01T06:40:09;23.60;99.90
45685;DHT22;46836;48.388;16.210;2022-08-01T06:42:43;23.70;99.90
45685;DHT22;46836;48.388;16.210;2022-08-01T06:45:13;23.90;99.90
45685;DHT22;46836;48.388;16.210;2022-08-01T06:47:41;24.00;99.90
45685;DHT22;46836;48.388;16.210;2022-08-01T06:50:10;24.00;99.90
45685;DHT22;46836;48.388;16.210;2022-08-01T06:52:38;24.10;99.90
45685;DHT22;46836;48.388;16.210;2022-08-01T06:55:05;24.20;99.90
45685;DHT22;46836;48.388;16.210;2022-08-01T06:57:32;24.30;99.90
45685;DHT22;46836;48.388;16.210;2022-08-01T07:00:05;24.30;99.90
45685;DHT22;46836;48.388;16.210;2022-08-01T07:02:38;24.40;99.90
45685;DHT22;46836;48.388;16.210;2022-08-01T07:05:05;24.40;99.90
45685;DHT22;46836;48.388;16.210;2022-08-01T07:07:32;24.50;99.90
45685;DHT22;46836;48.388;16.210;2022-08-01T07:09:59;24.50;99.90
45685;DHT22;46836;48.388;16.210;2022-08-01T07:12:27;24.70;99.90
45685;DHT22;46836;48.388;16.210;2022-08-01T07:14:54;24.70;99.90
45685;DHT22;46836;48.388;16.210;2022-08-01T07:17:24;24.80;99.90
45685;DHT22;46836;48.388;16.210;2022-08-01T07:19:51;24.70;99.90
45685;DHT22;46836;48.388;16.210;2022-08-01T07:22:18;24.70;99.90
45685;DHT22;46836;48.388;16.210;2022-08-01T07:24:49;24.60;99.90
45685;DHT22;46836;48.388;16.210;2022-08-01T07:27:20;24.60;99.90
45685;DHT22;46836;48.388;16.210;2022-08-01T07:29:51;24.50;99.90
45685;DHT22;46836;48.388;16.210;2022-08-01T07:32:19;24.50;99.90
45685;DHT22;46836;48.388;16.210;2022-08-01T07:34:46;24.50;99.90
45685;DHT22;46836;48.388;16.210;2022-08-01T07:37:13;24.50;99.90
45685;DHT22;46836;48.388;16.210;2022-08-01T07:39:40;24.60;99.90
45685;DHT22;46836;48.388;16.210;2022-08-01T07:42:07;24.50;99.90
45685;DHT22;46836;48.388;16.210;2022-08-01T07:44:37;24.60;99.90
45685;DHT22;46836;48.388;16.210;2022-08-01T07:47:05;24.60;99.90
45685;DHT22;46836;48.388;16.210;2022-08-01T07:49:32;24.70;99.90
45685;DHT22;46836;48.388;16.210;2022-08-01T07:52:05;24.70;99.90
45685;DHT22;46836;48.388;16.210;2022-08-01T07:54:32;24.70;99.90
45685;DHT22;46836;48.388;16.210;2022-08-01T07:57:02;24.70;99.90
45685;DHT22;46836;48.388;16.210;2022-08-01T07:59:29;24.80;99.90
45685;DHT22;46836;48.388;16.210;2022-08-01T08:01:57;24.80;99.90
45685;DHT22;46836;48.388;16.210;2022-08-01T08:04:24;24.80;99.90
45685;DHT22;46836;48.388;16.210;2022-08-01T08:06:52;24.90;99.90
45685;DHT22;46836;48.388;16.210;2022-08-01T08:09:20;25.00;99.90
45685;DHT22;46836;48.388;16.210;2022-08-01T08:11:47;25.10;99.90
45685;DHT22;46836;48.388;16.210;2022-08-01T08:14:15;25.20;99.90
45685;DHT22;46836;48.388;16.210;2022-08-01T08:16:43;25.30;99.90
45685;DHT22;46836;48.388;16.210;2022-08-01T08:19:11;25.40;99.90
45685;DHT22;46836;48.388;16.210;2022-08-01T08:21:38;25.40;99.90
45685;DHT22;46836;48.388;16.210;2022-08-01T08:24:07;25.50;99.90
45685;DHT22;46836;48.388;16.210;2022-08-01T08:26:57;25.60;99.90
45685;DHT22;46836;48.388;16.210;2022-08-01T08:29:25;25.70;99.90
45685;DHT22;46836;48.388;16.210;2022-08-01T08:31:53;25.90;99.90
45685;DHT22;46836;48.388;16.210;2022-08-01T08:34:29;26.00;99.90
45685;DHT22;46836;48.388;16.210;2022-08-01T08:36:57;26.30;99.90
45685;DHT22;46836;48.388;16.210;2022-08-01T08:39:25;26.50;99.90
45685;DHT22;46836;48.388;16.210;2022-08-01T08:41:53;26.60;99.90
45685;DHT22;46836;48.388;16.210;2022-08-01T08:44:20;26.70;99.90
45685;DHT22;46836;48.388;16.210;2022-08-01T08:46:49;26.80;99.90
45685;DHT22;46836;48.388;16.210;2022-08-01T08:49:23;26.90;99.90
45685;DHT22;46836;48.388;16.210;2022-08-01T08:51:52;27.00;99.90
45685;DHT22;46836;48.388;16.210;2022-08-01T08:54:22;27.10;99.90
45685;DHT22;46836;48.388;16.210;2022-08-01T08:56:58;27.20;99.90
45685;DHT22;46836;48.388;16.210;2022-08-01T08:59:26;27.50;99.90
45685;DHT22;46836;48.388;16.210;2022-08-01T09:01:53;27.60;99.90
45685;DHT22;46836;48.388;16.210;2022-08-01T09:04:21;27.60;99.90
45685;DHT22;46836;48.388;16.210;2022-08-01T09:06:55;27.60;99.90
45685;DHT22;46836;48.388;16.210;2022-08-01T09:09:23;27.50;99.90
45685;DHT22;46836;48.388;16.210;2022-08-01T09:11:51;27.50;99.90
45685;DHT22;46836;48.388;16.210;2022-08-01T09:14:24;27.70;99.90
45685;DHT22;46836;48.388;16.210;2022-08-01T09:17:04;27.90;99.90
45685;DHT22;46836;48.388;16.210;2022-08-01T09:19:39;27.90;99.90
45685;DHT22;46836;48.388;16.210;2022-08-01T09:22:10;28.00;99.90
45685;DHT22;46836;48.388;16.210;2022-08-01T09:24:38;28.10;99.90
45685;DHT22;46836;48.388;16.210;2022-08-01T09:27:20;28.20;99.90
45685;DHT22;46836;48.388;16.210;2022-08-01T09:29:52;28.20;99.90
45685;DHT22;46836;48.388;16.210;2022-08-01T09:32:29;28.10;99.90
45685;DHT22;46836;48.388;16.210;2022-08-01T09:35:23;28.10;99.90
45685;DHT22;46836;48.388;16.210;2022-08-01T09:38:22;28.10;99.90
45685;DHT22;46836;48.388;16.210;2022-08-01T09:40:53;28.10;99.90
45685;DHT22;46836;48.388;16.210;2022-08-01T09:43:26;28.00;99.90
45685;DHT22;46836;48.388;16.210;2022-08-01T09:45:54;27.90;99.90
45685;DHT22;46836;48.388;16.210;2022-08-01T09:48:24;27.90;99.90
45685;DHT22;46836;48.388;16.210;2022-08-01T09:50:54;27.90;99.90
45685;DHT22;46836;48.388;16.210;2022-08-01T09:53:41;27.90;99.90
45685;DHT22;46836;48.388;16.210;2022-08-01T09:56:19;28.00;99.90
45685;DHT22;46836;48.388;16.210;2022-08-01T09:58:51;28.00;99.90
45685;DHT22;46836;48.388;16.210;2022-08-01T10:01:26;28.00;99.90
45685;DHT22;46836;48.388;16.210;2022-08-01T10:04:10;27.90;99.90
45685;DHT22;46836;48.388;16.210;2022-08-01T10:06:43;28.00;99.90
45685;DHT22;46836;48.388;16.210;2022-08-01T10:09:13;28.10;99.90
45685;DHT22;46836;48.388;16.210;2022-08-01T10:11:43;28.30;99.90
45685;DHT22;46836;48.388;16.210;2022-08-01T10:14:11;28.40;99.90
45685;DHT22;46836;48.388;16.210;2022-08-01T10:16:45;28.50;99.90
45685;DHT22;46836;48.388;16.210;2022-08-01T10:19:24;28.60;99.90
45685;DHT22;46836;48.388;16.210;2022-08-01T10:21:56;28.70;99.90
45685;DHT22;46836;48.388;16.210;2022-08-01T10:24:28;28.80;99.90
45685;DHT22;46836;48.388;16.210;2022-08-01T10:26:58;28.90;99.90
45685;DHT22;46836;48.388;16.210;2022-08-01T10:29:57;29.00;99.90
45685;DHT22;46836;48.388;16.210;2022-08-01T10:32:47;29.20;99.90
45685;DHT22;46836;48.388;16.210;2022-08-01T10:35:17;29.50;99.90
45685;DHT22;46836;48.388;16.210;2022-08-01T10:38:06;29.70;99.90
45685;DHT22;46836;48.388;16.210;2022-08-01T10:40:37;29.90;99.90
45685;DHT22;46836;48.388;16.210;2022-08-01T10:43:05;29.90;99.90
45685;DHT22;46836;48.388;16.210;2022-08-01T10:45:33;29.80;99.90
45685;DHT22;46836;48.388;16.210;2022-08-01T10:48:14;29.80;99.90
45685;DHT22;46836;48.388;16.210;2022-08-01T10:50:49;29.60;99.90
45685;DHT22;46836;48.388;16.210;2022-08-01T10:58:37;29.20;99.90
45685;DHT22;46836;48.388;16.210;2022-08-01T11:03:43;29.10;99.90
45685;DHT22;46836;48.388;16.210;2022-08-01T11:06:36;29.20;99.90
45685;DHT22;46836;48.388;16.210;2022-08-01T11:20:15;29.00;99.90
45685;DHT22;46836;48.388;16.210;2022-08-01T11:28:33;28.90;99.90
45685;DHT22;46836;48.388;16.210;2022-08-01T11:41:21;30.10;99.90
45685;DHT22;46836;48.388;16.210;2022-08-01T11:44:12;30.30;99.90
45685;DHT22;46836;48.388;16.210;2022-08-01T11:49:46;30.40;99.90
45685;DHT22;46836;48.388;16.210;2022-08-01T11:52:31;30.00;99.90
45685;DHT22;46836;48.388;16.210;2022-08-01T11:55:08;29.70;99.90
45685;DHT22;46836;48.388;16.210;2022-08-01T11:57:37;29.40;99.90
45685;DHT22;46836;48.388;16.210;2022-08-01T12:00:12;29.10;99.90
45685;DHT22;46836;48.388;16.210;2022-08-01T12:02:44;28.90;99.90
45685;DHT22;46836;48.388;16.210;2022-08-01T12:05:16;28.60;99.90
45685;DHT22;46836;48.388;16.210;2022-08-01T12:07:51;28.40;99.90
45685;DHT22;46836;48.388;16.210;2022-08-01T12:10:21;28.00;99.90
45685;DHT22;46836;48.388;16.210;2022-08-01T12:12:50;27.40;99.90
45685;DHT22;46836;48.388;16.210;2022-08-01T12:15:19;26.40;99.90
45685;DHT22;46836;48.388;16.210;2022-08-01T12:17:58;25.60;99.90
45685;DHT22;46836;48.388;16.210;2022-08-01T12:20:31;25.00;99.90
45685;DHT22;46836;48.388;16.210;2022-08-01T12:23:02;24.70;99.90
45685;DHT22;46836;48.388;16.210;2022-08-01T12:25:29;24.70;99.90
45685;DHT22;46836;48.388;16.210;2022-08-01T12:28:00;24.70;99.90
45685;DHT22;46836;48.388;16.210;2022-08-01T12:30:29;24.70;99.90
45685;DHT22;46836;48.388;16.210;2022-08-01T12:32:58;24.80;99.90
45685;DHT22;46836;48.388;16.210;2022-08-01T12:35:27;25.20;99.90
45685;DHT22;46836;48.388;16.210;2022-08-01T12:37:59;25.50;99.90
45685;DHT22;46836;48.388;16.210;2022-08-01T12:40:31;25.90;99.90
45685;DHT22;46836;48.388;16.210;2022-08-01T12:43:00;26.10;99.90
45685;DHT22;46836;48.388;16.210;2022-08-01T12:45:33;26.10;99.90
45685;DHT22;46836;48.388;16.210;2022-08-01T12:48:01;26.10;99.90
45685;DHT22;46836;48.388;16.210;2022-08-01T12:50:30;26.10;99.90
45685;DHT22;46836;48.388;16.210;2022-08-01T12:52:59;26.10;99.90
45685;DHT22;46836;48.388;16.210;2022-08-01T12:55:27;26.00;99.90
45685;DHT22;46836;48.388;16.210;2022-08-01T12:58:08;26.10;99.90
45685;DHT22;46836;48.388;16.210;2022-08-01T13:00:43;26.00;99.90
45685;DHT22;46836;48.388;16.210;2022-08-01T13:03:18;26.10;99.90
45685;DHT22;46836;48.388;16.210;2022-08-01T13:05:50;26.50;99.90
45685;DHT22;46836;48.388;16.210;2022-08-01T13:08:37;26.70;99.90
45685;DHT22;46836;48.388;16.210;2022-08-01T13:11:10;27.00;99.90
45685;DHT22;46836;48.388;16.210;2022-08-01T13:13:45;27.20;99.90
45685;DHT22;46836;48.388;16.210;2022-08-01T13:16:18;27.50;99.90
45685;DHT22;46836;48.388;16.210;2022-08-01T13:19:05;27.70;99.90
45685;DHT22;46836;48.388;16.210;2022-08-01T13:21:33;27.90;99.90
45685;DHT22;46836;48.388;16.210;2022-08-01T13:24:28;28.00;99.90
45685;DHT22;46836;48.388;16.210;2022-08-01T13:27:00;28.30;99.90
45685;DHT22;46836;48.388;16.210;2022-08-01T13:29:38;28.50;99.90
45685;DHT22;46836;48.388;16.210;2022-08-01T13:32:15;28.70;99.90
45685;DHT22;46836;48.388;16.210;2022-08-01T13:35:06;28.70;99.90
45685;DHT22;46836;48.388;16.210;2022-08-01T13:37:36;28.80;99.90
45685;DHT22;46836;48.388;16.210;2022-08-01T13:40:08;29.00;99.90
45685;DHT22;46836;48.388;16.210;2022-08-01T13:42:36;29.10;99.90
45685;DHT22;46836;48.388;16.210;2022-08-01T13:45:04;29.20;99.90
45685;DHT22;46836;48.388;16.210;2022-08-01T13:47:43;29.30;99.90
45685;DHT22;46836;48.388;16.210;2022-08-01T13:50:31;29.30;99.90
45685;DHT22;46836;48.388;16.210;2022-08-01T13:52:58;29.50;99.90
45685;DHT22;46836;48.388;16.210;2022-08-01T13:55:25;29.50;99.90
45685;DHT22;46836;48.388;16.210;2022-08-01T13:57:59;29.70;99.90
45685;DHT22;46836;48.388;16.210;2022-08-01T14:00:26;29.60;99.90
45685;DHT22;46836;48.388;16.210;2022-08-01T14:02:53;29.50;99.90
45685;DHT22;46836;48.388;16.210;2022-08-01T14:05:20;29.50;99.90
45685;DHT22;46836;48.388;16.210;2022-08-01T14:07:47;29.60;99.90
45685;DHT22;46836;48.388;16.210;2022-08-01T14:10:14;29.90;99.90
45685;DHT22;46836;48.388;16.210;2022-08-01T14:12:47;30.10;99.90
45685;DHT22;46836;48.388;16.210;2022-08-01T14:15:15;30.20;99.90
45685;DHT22;46836;48.388;16.210;2022-08-01T14:18:02;30.10;99.90
45685;DHT22;46836;48.388;16.210;2022-08-01T14:20:31;29.90;99.90
45685;DHT22;46836;48.388;16.210;2022-08-01T14:22:58;29.70;99.90
45685;DHT22;46836;48.388;16.210;2022-08-01T14:25:26;29.50;99.90
45685;DHT22;46836;48.388;16.210;2022-08-01T14:28:13;29.20;99.90
45685;DHT22;46836;48.388;16.210;2022-08-01T14:30:40;29.10;99.90
45685;DHT22;46836;48.388;16.210;2022-08-01T14:33:10;29.00;99.90
45685;DHT22;46836;48.388;16.210;2022-08-01T14:35:38;29.10;99.90
45685;DHT22;46836;48.388;16.210;2022-08-01T14:38:26;29.40;99.90
45685;DHT22;46836;48.388;16.210;2022-08-01T14:40:59;29.80;99.90
45685;DHT22;46836;48.388;16.210;2022-08-01T14:43:26;30.00;99.90
45685;DHT22;46836;48.388;16.210;2022-08-01T14:45:59;30.30;99.90
45685;DHT22;46836;48.388;16.210;2022-08-01T14:48:26;30.10;99.90
45685;DHT22;46836;48.388;16.210;2022-08-01T14:50:56;30.10;99.90
45685;DHT22;46836;48.388;16.210;2022-08-01T14:53:23;30.10;99.90
45685;DHT22;46836;48.388;16.210;2022-08-01T14:55:50;30.10;99.90
45685;DHT22;46836;48.388;16.210;2022-08-01T14:58:17;30.20;99.90
45685;DHT22;46836;48.388;16.210;2022-08-01T15:00:44;30.40;99.90
45685;DHT22;46836;48.388;16.210;2022-08-01T15:03:12;30.50;99.90
45685;DHT22;46836;48.388;16.210;2022-08-01T15:05:39;30.60;99.90
45685;DHT22;46836;48.388;16.210;2022-08-01T15:08:06;30.80;99.90
45685;DHT22;46836;48.388;16.210;2022-08-01T15:10:33;30.30;99.90
45685;DHT22;46836;48.388;16.210;2022-08-01T15:13:01;29.70;99.90
45685;DHT22;46836;48.388;16.210;2022-08-01T15:15:28;29.60;99.90
45685;DHT22;46836;48.388;16.210;2022-08-01T15:17:55;29.70;99.90
45685;DHT22;46836;48.388;16.210;2022-08-01T15:20:23;29.80;99.90
45685;DHT22;46836;48.388;16.210;2022-08-01T15:22:50;29.70;99.90
45685;DHT22;46836;48.388;16.210;2022-08-01T15:25:17;29.50;99.90
45685;DHT22;46836;48.388;16.210;2022-08-01T15:27:44;29.20;99.90
45685;DHT22;46836;48.388;16.210;2022-08-01T15:30:11;29.10;99.90
45685;DHT22;46836;48.388;16.210;2022-08-01T15:32:38;29.10;99.90
45685;DHT22;46836;48.388;16.210;2022-08-01T15:35:06;29.20;99.90
45685;DHT22;46836;48.388;16.210;2022-08-01T15:37:33;29.30;99.90
45685;DHT22;46836;48.388;16.210;2022-08-01T15:40:06;29.50;99.90
45685;DHT22;46836;48.388;16.210;2022-08-01T15:42:34;29.60;99.90
45685;DHT22;46836;48.388;16.210;2022-08-01T15:45:01;29.70;99.90
45685;DHT22;46836;48.388;16.210;2022-08-01T15:47:29;29.60;99.90
45685;DHT22;46836;48.388;16.210;2022-08-01T15:49:57;29.50;99.90
45685;DHT22;46836;48.388;16.210;2022-08-01T15:52:26;29.50;99.90
45685;DHT22;46836;48.388;16.210;2022-08-01T15:54:57;29.40;99.90
45685;DHT22;46836;48.388;16.210;2022-08-01T15:57:25;29.30;99.90
45685;DHT22;46836;48.388;16.210;2022-08-01T15:59:53;29.20;99.90
45685;DHT22;46836;48.388;16.210;2022-08-01T16:02:20;29.30;99.90
45685;DHT22;46836;48.388;16.210;2022-08-01T16:04:47;29.40;99.90
45685;DHT22;46836;48.388;16.210;2022-08-01T16:07:14;29.50;99.90
45685;DHT22;46836;48.388;16.210;2022-08-01T16:09:41;29.50;99.90
45685;DHT22;46836;48.388;16.210;2022-08-01T16:12:08;29.50;99.90
45685;DHT22;46836;48.388;16.210;2022-08-01T16:14:36;29.60;99.90
45685;DHT22;46836;48.388;16.210;2022-08-01T16:17:03;29.60;99.90
45685;DHT22;46836;48.388;16.210;2022-08-01T16:19:30;29.60;99.90
45685;DHT22;46836;48.388;16.210;2022-08-01T16:21:57;29.60;99.90